createdAt,value
2022-11-14T00:00:47.898Z,13.60
2022-11-14T00:05:50.876Z,9.50
2022-11-14T00:10:53.750Z,10.50
2022-11-14T00:15:56.886Z,8.00
2022-11-14T00:20:59.748Z,11.90
2022-11-14T00:26:02.553Z,7.30
2022-11-14T00:31:06.028Z,6.50
2022-11-14T00:36:09.058Z,6.60
2022-11-14T00:41:11.880Z,7.30
2022-11-14T00:46:14.678Z,5.40
2022-11-14T00:51:17.474Z,5.80
2022-11-14T00:56:20.292Z,6.10
2022-11-14T01:01:23.134Z,5.40
2022-11-14T01:06:26.241Z,6.10
2022-11-14T01:11:29.094Z,6.20
2022-11-14T01:16:32.011Z,6.50
2022-11-14T01:21:35.209Z,6.00
2022-11-14T01:26:38.020Z,5.60
2022-11-14T01:31:42.430Z,5.80
2022-11-14T01:36:45.508Z,5.40
2022-11-14T01:41:48.308Z,5.30
2022-11-14T01:46:56.768Z,5.60
2022-11-14T01:52:06.158Z,5.00
2022-11-14T01:57:11.192Z,4.80
2022-11-14T02:02:17.486Z,5.00
2022-11-14T02:07:20.653Z,5.70
2022-11-14T02:12:24.302Z,4.90
2022-11-14T02:17:30.067Z,4.10
2022-11-14T02:27:39.962Z,4.60
2022-11-14T02:33:09.449Z,4.50
2022-11-14T02:38:07.104Z,4.30
2022-11-14T02:43:09.909Z,4.40
2022-11-14T02:48:12.785Z,5.00
2022-11-14T02:53:15.712Z,4.90
2022-11-14T02:58:18.481Z,5.40
2022-11-14T03:03:21.244Z,5.10
2022-11-14T03:08:24.241Z,6.20
2022-11-14T03:13:30.330Z,4.60
2022-11-14T03:18:33.461Z,5.90
2022-11-14T03:23:36.857Z,5.40
2022-11-14T03:28:40.179Z,4.60
2022-11-14T03:33:43.012Z,5.60
2022-11-14T03:38:45.825Z,5.90
2022-11-14T03:43:48.626Z,6.60
2022-11-14T03:48:51.472Z,6.80
2022-11-14T03:53:54.306Z,6.10
2022-11-14T03:58:57.115Z,7.00
2022-11-14T04:03:59.974Z,6.60
2022-11-14T04:09:02.919Z,7.20
2022-11-14T04:14:05.731Z,7.50
2022-11-14T04:19:08.548Z,7.10
2022-11-14T04:24:11.471Z,7.30
2022-11-14T04:29:14.463Z,7.60
2022-11-14T04:34:17.264Z,7.80
2022-11-14T04:39:20.151Z,7.10
2022-11-14T04:44:22.947Z,7.30
2022-11-14T04:49:25.711Z,7.10
2022-11-14T04:54:28.440Z,7.50
2022-11-14T04:59:31.202Z,7.70
2022-11-14T05:04:33.967Z,6.80
2022-11-14T05:09:36.954Z,7.10
2022-11-14T05:14:39.712Z,10.70
2022-11-14T05:19:42.489Z,11.50
2022-11-14T05:24:45.261Z,20.80
2022-11-14T05:29:48.086Z,12.60
2022-11-14T05:34:50.899Z,8.40
2022-11-14T05:39:53.736Z,7.50
2022-11-14T05:44:56.536Z,6.60
2022-11-14T05:49:59.295Z,7.70
2022-11-14T05:55:02.473Z,7.70
2022-11-14T06:00:06.034Z,8.30
2022-11-14T06:05:09.568Z,8.20
2022-11-14T06:10:13.618Z,7.50
2022-11-14T06:15:16.819Z,8.30
2022-11-14T06:20:19.759Z,7.70
2022-11-14T06:25:22.552Z,9.10
2022-11-14T06:30:25.346Z,8.30
2022-11-14T06:35:28.320Z,6.70
2022-11-14T06:40:31.212Z,7.70
2022-11-14T06:45:33.962Z,7.00
2022-11-14T06:50:36.734Z,9.40
2022-11-14T06:55:39.559Z,7.70
2022-11-14T07:00:42.482Z,7.60
2022-11-14T07:05:47.673Z,7.70
2022-11-14T07:10:51.029Z,7.90
2022-11-14T07:16:18.081Z,8.80
2022-11-14T07:21:21.167Z,5.90
2022-11-14T07:26:24.333Z,8.60
2022-11-14T07:31:29.337Z,6.50
2022-11-14T07:36:33.270Z,6.30
2022-11-14T07:41:41.414Z,6.50
2022-11-14T07:46:44.469Z,6.50
2022-11-14T07:51:47.289Z,5.40
2022-11-14T07:56:51.149Z,5.90
2022-11-14T08:01:55.586Z,6.20
2022-11-14T08:12:43.340Z,5.60
2022-11-14T08:17:46.509Z,4.50
2022-11-14T08:22:49.358Z,4.10
2022-11-14T08:27:53.623Z,4.10
2022-11-14T08:32:56.506Z,3.90
2022-11-14T08:38:02.072Z,5.10
2022-11-14T08:43:07.727Z,4.80
2022-11-14T08:48:11.840Z,5.00
2022-11-14T08:53:14.828Z,4.30
2022-11-14T08:58:17.861Z,5.70
2022-11-14T09:03:25.489Z,5.20
2022-11-14T09:08:31.827Z,6.00
2022-11-14T09:13:35.595Z,5.70
2022-11-14T09:18:38.464Z,6.00
2022-11-14T09:23:41.339Z,6.70
2022-11-14T09:28:49.322Z,5.80
2022-11-14T09:33:52.347Z,5.80
2022-11-14T09:38:55.170Z,6.10
2022-11-14T09:44:22.094Z,5.70
2022-11-14T09:49:51.331Z,6.70
2022-11-14T09:55:01.493Z,7.20
2022-11-14T10:00:23.675Z,7.30
2022-11-14T10:05:48.391Z,8.50
2022-11-14T10:11:29.597Z,7.30
2022-11-14T10:17:05.336Z,6.60
2022-11-14T10:23:01.326Z,5.90
2022-11-14T10:28:32.252Z,6.50
2022-11-14T10:33:56.665Z,6.40
2022-11-14T10:39:10.978Z,6.00
2022-11-14T10:44:21.804Z,6.60
2022-11-14T10:49:25.981Z,5.50
2022-11-14T10:55:13.572Z,7.80
2022-11-14T11:00:19.591Z,6.90
2022-11-14T11:05:30.603Z,6.90
2022-11-14T11:10:54.223Z,7.10
2022-11-14T11:16:01.005Z,7.50
2022-11-14T11:21:12.677Z,6.70
2022-11-14T11:26:30.965Z,8.10
2022-11-14T11:31:53.755Z,7.70
2022-11-14T11:37:17.372Z,8.70
2022-11-14T11:48:10.296Z,6.90
2022-11-14T11:53:26.398Z,7.10
2022-11-14T11:58:46.148Z,6.30
2022-11-14T12:03:54.528Z,9.10
2022-11-14T12:09:22.028Z,7.90
2022-11-14T12:15:06.769Z,7.70
2022-11-14T12:20:48.143Z,7.50
2022-11-14T12:26:06.060Z,7.00
2022-11-14T12:31:14.262Z,9.00
2022-11-14T12:36:17.403Z,7.20
2022-11-14T12:41:38.392Z,7.70
2022-11-14T12:47:03.363Z,5.90
2022-11-14T12:52:46.933Z,7.00
2022-11-14T12:58:26.850Z,8.80
2022-11-14T13:03:49.093Z,6.70
2022-11-14T13:09:07.266Z,7.90
2022-11-14T13:14:29.089Z,7.30
2022-11-14T13:19:50.923Z,7.50
2022-11-14T13:24:59.697Z,6.90
2022-11-14T13:30:08.174Z,6.40
2022-11-14T13:35:37.219Z,8.30
2022-11-14T13:40:51.349Z,7.80
2022-11-14T13:46:13.761Z,7.80
2022-11-14T13:56:59.785Z,7.90
2022-11-14T14:02:43.840Z,6.80
2022-11-14T14:07:49.742Z,7.80
2022-11-14T14:13:10.970Z,7.60
2022-11-14T14:18:40.219Z,6.90
2022-11-14T14:23:54.956Z,6.30
2022-11-14T14:29:13.969Z,7.30
2022-11-14T14:34:29.242Z,7.50
2022-11-14T14:39:32.409Z,12.90
2022-11-14T14:44:40.707Z,8.60
2022-11-14T14:49:44.621Z,6.40
2022-11-14T14:54:55.123Z,10.00
2022-11-14T15:00:01.883Z,9.90
2022-11-14T15:10:19.390Z,12.40
2022-11-14T15:15:25.816Z,17.80
2022-11-14T15:20:30.429Z,28.10
2022-11-14T15:25:33.830Z,17.50
2022-11-14T15:30:36.950Z,16.70
2022-11-14T15:35:40.446Z,24.30
2022-11-14T15:40:43.581Z,18.40
2022-11-14T15:45:46.517Z,11.50
2022-11-14T15:50:51.001Z,10.90
2022-11-14T15:55:53.843Z,10.30
2022-11-14T16:00:56.931Z,14.70
2022-11-14T16:06:01.955Z,12.70
2022-11-14T16:11:05.831Z,17.60
2022-11-14T16:16:08.803Z,11.50
2022-11-14T16:21:16.512Z,13.40
2022-11-14T16:26:20.403Z,20.80
2022-11-14T16:31:24.336Z,18.10
2022-11-14T16:36:27.750Z,19.10
2022-11-14T16:41:30.758Z,13.70
2022-11-14T16:46:33.631Z,13.40
2022-11-14T16:51:51.938Z,11.70
2022-11-14T16:56:55.232Z,9.60
2022-11-14T17:01:58.276Z,13.00
2022-11-14T17:07:01.243Z,11.70
2022-11-14T17:12:04.798Z,12.60
2022-11-14T17:17:07.865Z,12.50
2022-11-14T17:22:10.988Z,13.70
2022-11-14T17:27:14.005Z,14.80
2022-11-14T17:32:17.208Z,13.80
2022-11-14T17:37:20.113Z,12.50
2022-11-14T17:42:22.954Z,13.60
2022-11-14T17:47:25.815Z,17.30
2022-11-14T17:52:28.605Z,18.90
2022-11-14T17:57:31.462Z,18.20
2022-11-14T18:02:34.458Z,19.70
2022-11-14T18:07:37.355Z,18.30
2022-11-14T18:12:40.841Z,16.80
2022-11-14T18:17:43.656Z,19.00
2022-11-14T18:22:46.733Z,15.90
2022-11-14T18:27:49.837Z,16.40
2022-11-14T18:32:52.946Z,16.10
2022-11-14T18:37:57.725Z,17.70
2022-11-14T18:43:01.285Z,18.40
2022-11-14T18:48:04.284Z,15.10
2022-11-14T18:53:07.495Z,15.50
2022-11-14T18:58:10.332Z,17.10
2022-11-14T19:03:14.739Z,17.60
2022-11-14T19:08:18.611Z,17.30
2022-11-14T19:13:24.939Z,17.30
2022-11-14T19:18:27.832Z,17.60
2022-11-14T19:23:31.163Z,16.90
2022-11-14T19:28:34.289Z,14.80
2022-11-14T19:33:40.284Z,18.40
2022-11-14T19:38:43.400Z,15.10
2022-11-14T19:43:46.961Z,16.70
2022-11-14T19:48:49.921Z,15.20
2022-11-14T19:53:53.512Z,19.90
2022-11-14T19:58:56.799Z,19.50
2022-11-14T20:04:01.799Z,20.60
2022-11-14T20:09:08.056Z,19.30
2022-11-14T20:14:12.383Z,18.70
2022-11-14T20:19:16.275Z,18.10
2022-11-14T20:24:22.604Z,18.50
2022-11-14T20:29:25.459Z,19.70
2022-11-14T20:34:28.224Z,19.90
2022-11-14T20:39:31.121Z,22.00
2022-11-14T20:44:33.953Z,24.70
2022-11-14T20:49:36.795Z,20.00
2022-11-14T20:54:39.762Z,20.80
2022-11-14T20:59:42.673Z,19.00
2022-11-14T21:04:45.595Z,20.20
2022-11-14T21:09:49.019Z,19.00
2022-11-14T21:14:51.816Z,17.90
2022-11-14T21:19:54.813Z,18.90
2022-11-14T21:24:57.640Z,19.40
2022-11-14T21:30:00.518Z,19.00
2022-11-14T21:35:09.547Z,15.50
2022-11-14T21:40:13.239Z,18.90
2022-11-14T21:45:16.328Z,18.20
2022-11-14T21:50:19.205Z,21.00
2022-11-14T21:55:22.326Z,20.10
2022-11-14T22:00:25.136Z,19.00
2022-11-14T22:05:27.960Z,20.50
2022-11-14T22:10:30.957Z,20.10
2022-11-14T22:15:35.716Z,17.50
2022-11-14T22:20:38.604Z,20.00
2022-11-14T22:25:41.487Z,22.00
2022-11-14T22:30:44.355Z,20.90
2022-11-14T22:35:47.183Z,20.10
2022-11-14T22:40:50.049Z,21.20
2022-11-14T22:45:53.220Z,19.40
2022-11-14T22:51:20.390Z,21.80
2022-11-14T22:56:25.642Z,21.20
2022-11-14T23:01:33.866Z,20.30
2022-11-14T23:06:37.007Z,20.90
2022-11-14T23:11:39.896Z,22.70
2022-11-14T23:16:42.658Z,22.10
2022-11-14T23:21:45.487Z,22.00
2022-11-14T23:26:49.752Z,22.70
2022-11-14T23:31:52.575Z,21.80
2022-11-14T23:36:55.369Z,22.30
2022-11-14T23:41:58.160Z,22.00
2022-11-14T23:47:01.152Z,22.70
2022-11-14T23:52:04.157Z,20.80
2022-11-14T23:57:06.965Z,20.60
